Saturday, July 21, 2018, 3:31 PM EDT
Back to Local

KSLK, Adirondack Regional Airport

Location: Saranac Lake, NY, United States Lat: 44.4
Local Time: 3:31 PM EDT (19:31 GMT) Lon: -74.2
Time Zone: US/Eastern Elev: 1663 ft

Show me the last for .
Show Decoded

2018-07-21 14:51 METAR KSLK 211851Z AUTO 13011KT 090V160 10SM CLR 28/09 A3006 RMK AO2 SLP176
                 T02780094 =
2018-07-21 13:51 METAR KSLK 211751Z AUTO 13007KT 10SM CLR 27/09 A3007 RMK AO2 SLP179 T02670094
                 10272 20189 58016 =
2018-07-21 12:51 METAR KSLK 211651Z AUTO VRB04KT 10SM CLR 25/12 A3009 RMK AO2 SLP186 T02500117 =
2018-07-21 11:51 METAR KSLK 211551Z AUTO 20008KT 10SM FEW047 24/13 A3011 RMK AO2 SLP193 T02440128
                 =
2018-07-21 10:51 METAR KSLK 211451Z AUTO VRB06KT 10SM SCT043 24/13 A3012 RMK AO2 SLP193 T02390128
                 57001 =
2018-07-21 09:51 METAR KSLK 211351Z AUTO 18006KT 10SM SCT038 23/13 A3012 RMK AO2 SLP192 T02280133
                 =
2018-07-21 08:51 METAR KSLK 211251Z AUTO 11005KT 10SM CLR 22/13 A3013 RMK AO2 SLP192 T02170128 =
2018-07-21 07:51 METAR KSLK 211151Z AUTO 00000KT 10SM CLR 19/14 A3013 RMK AO2 SLP192 T01890139
                 10189 20072 50000 =
2018-07-21 06:51 METAR KSLK 211051Z AUTO 00000KT 10SM CLR 12/11 A3013 RMK AO2 SLP197 T01220111 =
2018-07-21 05:51 METAR KSLK 210951Z AUTO 00000KT 10SM CLR 08/08 A3013 RMK AO2 SLP197 T00780078 =
2018-07-21 04:51 METAR KSLK 210851Z AUTO 00000KT 10SM CLR 08/08 A3013 RMK AO2 SLP196 T00830083
                 51006 =
2018-07-21 03:51 METAR KSLK 210751Z AUTO 00000KT 10SM CLR 09/09 A3012 RMK AO2 SLP194 T00890089 =
2018-07-21 02:51 METAR KSLK 210651Z AUTO 00000KT 10SM CLR 09/09 A3011 RMK AO2 SLP191 T00890089 =
2018-07-21 01:51 METAR KSLK 210551Z AUTO 00000KT 10SM CLR 09/09 A3011 RMK AO2 SLP189 T00940089
                 10256 20094 58001 =
2018-07-21 00:51 METAR KSLK 210451Z AUTO 00000KT 10SM CLR 11/10 A3011 RMK AO2 SLP191 T01110100
                 403000050 =
2018-07-20 23:51 METAR KSLK 210351Z AUTO 00000KT 10SM CLR 12/11 A3011 RMK AO2 SLP190 T01220106 =
2018-07-20 22:51 METAR KSLK 210251Z AUTO 00000KT 10SM CLR 17/11 A3011 RMK AO2 SLP189 T01670106
                 51007 =
2018-07-20 21:51 METAR KSLK 210151Z AUTO 22004KT 10SM CLR 19/10 A3010 RMK AO2 SLP186 T01890100 =
2018-07-20 20:51 METAR KSLK 210051Z AUTO 17005KT 10SM CLR 23/09 A3010 RMK AO2 SLP183 T02280089 =
2018-07-20 19:51 METAR KSLK 202351Z AUTO 17009KT 10SM CLR 26/10 A3009 RMK AO2 SLP182 T02560100
                 10300 20256 53000 =
2018-07-20 18:51 METAR KSLK 202251Z AUTO 17007KT 10SM CLR 28/10 A3008 RMK AO2 SLP179 T02830100 =
2018-07-20 17:51 METAR KSLK 202151Z AUTO 12007KT 10SM CLR 29/09 A3008 RMK AO2 SLP181 T02890094 =
2018-07-20 16:51 METAR KSLK 202051Z AUTO 12003KT 10SM CLR 29/10 A3009 RMK AO2 SLP183 T02940100
                 56015 =
2018-07-20 15:51 METAR KSLK 201951Z AUTO 15006KT 10SM CLR 29/09 A3010 RMK AO2 SLP187 T02890089 =

Support USWX by starting your Amazon purchase here.